Terminal Aerodrome Forecast
Issued by NWS

Home | Current Version | Previous Version | Text Only | Print | Product List | Glossary On
Versions: 1 2 3 4 5 6 7 8 9 10 11 12 13 14 15 16 17 18 19 20 21 22
000
FTUS45 KVEF 260321 AAD
TAFVGT
TAF AMD
KVGT 260321Z 2603/2624 32012KT P6SM SCT090 BKN120
      TEMPO 2603/2605 VRB06KT
     FM260500 33015KT P6SM SCT080 BKN120
     FM260700 33022G32KT P6SM SCT250=

USA.gov is the U.S. government's official web portal to all federal, state and local government web resources and services.